Time;durP1;ratioP1;P1;durP2;ratioP2;P2;SDS_P1;SDS_P2;PMS_P1;PMS_P2;Temp;Humidity;BMP_temperature;BMP_pressure;BME280_temperature;BME280_humidity;BME280_pressure;Samples;Min_cycle;Max_cycle;Signal;HPM_P1;HPM_P2
2022/02/01 00:01:03;;;;;;;2.25;1.45;;;;;;;;;;6239811;23;20349;-76
2022/02/01 00:03:32;;;;;;;2.58;1.58;;;;;;;;;;6239839;22;20020;-76
2022/02/01 00:06:07;;;;;;;2.85;1.48;;;;;;;;;;6238086;22;20920;-76
2022/02/01 00:08:40;;;;;;;2.70;1.37;;;;;;;;;;6240336;22;20070;-76
2022/02/01 00:11:17;;;;;;;4.65;1.30;;;;;;;;;;6238832;22;20031;-76
2022/02/01 00:13:55;;;;;;;2.50;1.30;;;;;;;;;;6239749;22;20020;-75
2022/02/01 00:16:52;;;;;;;2.03;1.30;;;;;;;;;;6239052;22;20078;-76
2022/02/01 00:19:40;;;;;;;2.83;1.75;;;;;;;;;;6239636;23;20096;-76
2022/02/01 00:33:32;;;;;;;2.05;1.23;;;;;;;;;;6238837;23;20083;-76
2022/02/01 00:36:02;;;;;;;1.75;1.00;;;;;;;;;;6239809;22;20464;-76
2022/02/01 00:38:35;;;;;;;1.85;1.08;;;;;;;;;;6239576;22;20024;-76
2022/02/01 00:41:05;;;;;;;1.75;1.10;;;;;;;;;;6239863;22;20020;-76
2022/02/01 00:43:33;;;;;;;2.22;1.20;;;;;;;;;;6239456;22;20020;-76
2022/02/01 00:46:02;;;;;;;3.65;1.50;;;;;;;;;;6239826;22;20398;-76
2022/02/01 00:48:29;;;;;;;2.92;1.25;;;;;;;;;;6240286;22;20093;-76
2022/02/01 00:51:04;;;;;;;2.13;1.10;;;;;;;;;;6239584;22;20020;-76
2022/02/01 00:53:32;;;;;;;2.67;1.30;;;;;;;;;;6239017;23;20028;-76
2022/02/01 00:55:59;;;;;;;2.70;1.50;;;;;;;;;;6239420;22;20095;-76
2022/02/01 00:58:25;;;;;;;3.00;1.40;;;;;;;;;;6238338;22;20742;-76
2022/02/01 01:00:52;;;;;;;3.45;1.50;;;;;;;;;;6239271;22;20294;-76
2022/02/01 01:03:20;;;;;;;2.20;1.42;;;;;;;;;;6239528;22;20090;-77
2022/02/01 01:05:46;;;;;;;3.17;1.50;;;;;;;;;;6239121;22;20020;-76
2022/02/01 01:08:13;;;;;;;2.53;1.38;;;;;;;;;;6208684;23;20756;-76
2022/02/01 01:10:41;;;;;;;3.13;1.80;;;;;;;;;;6208235;23;20055;-76
2022/02/01 01:13:20;;;;;;;1.95;1.42;;;;;;;;;;6208369;23;20346;-76
2022/02/01 01:15:54;;;;;;;2.53;1.63;;;;;;;;;;6209580;23;20027;-76
2022/02/01 01:18:52;;;;;;;3.78;1.70;;;;;;;;;;6208424;23;20024;-76
2022/02/01 01:43:35;;;;;;;3.95;2.28;;;;;;;;;;6209222;23;20032;-76
2022/02/01 01:46:17;;;;;;;5.10;2.28;;;;;;;;;;6210926;23;20095;-77
2022/02/01 01:54:13;;;;;;;5.40;2.22;;;;;;;;;;6209206;23;20046;-77
2022/02/01 01:56:40;;;;;;;4.50;2.53;;;;;;;;;;6211231;23;20028;-77
2022/02/01 01:59:08;;;;;;;4.88;2.47;;;;;;;;;;6211309;23;20056;-77
2022/02/01 02:01:36;;;;;;;4.97;2.67;;;;;;;;;;6210530;23;20407;-77
2022/02/01 02:04:03;;;;;;;3.90;2.53;;;;;;;;;;6210256;23;20024;-76
2022/02/01 02:06:32;;;;;;;3.83;2.33;;;;;;;;;;6219640;22;20024;-77
2022/02/01 02:09:00;;;;;;;4.72;2.53;;;;;;;;;;6240379;22;20016;-77
2022/02/01 02:11:35;;;;;;;5.93;2.90;;;;;;;;;;6240782;22;20020;-76
2022/02/01 02:14:18;;;;;;;5.13;2.80;;;;;;;;;;6241171;22;20078;-76
2022/02/01 02:16:48;;;;;;;6.15;2.80;;;;;;;;;;6242294;22;20028;-77
2022/02/01 02:19:15;;;;;;;4.45;2.58;;;;;;;;;;6240623;22;20357;-76
2022/02/01 02:21:46;;;;;;;3.97;2.55;;;;;;;;;;6240410;22;20786;-76
2022/02/01 02:24:13;;;;;;;6.35;3.08;;;;;;;;;;6240791;22;20024;-76
2022/02/01 02:26:40;;;;;;;3.85;2.42;;;;;;;;;;6240763;22;20117;-76
2022/02/01 02:29:06;;;;;;;6.38;2.65;;;;;;;;;;6241126;22;20101;-76
2022/02/01 02:31:34;;;;;;;5.85;2.53;;;;;;;;;;6241376;22;20337;-76
2022/02/01 02:34:06;;;;;;;4.40;2.70;;;;;;;;;;6240579;22;20030;-76
2022/02/01 02:36:35;;;;;;;6.22;3.33;;;;;;;;;;6241201;22;20382;-76
2022/02/01 02:39:09;;;;;;;5.05;2.95;;;;;;;;;;6241160;22;20020;-76
2022/02/01 02:41:48;;;;;;;5.22;3.10;;;;;;;;;;6239712;22;20030;-75
2022/02/01 02:46:58;;;;;;;4.93;3.17;;;;;;;;;;6241235;23;20026;-76
2022/02/01 02:49:25;;;;;;;5.30;3.05;;;;;;;;;;6240914;22;20076;-76
2022/02/01 02:51:52;;;;;;;4.95;3.00;;;;;;;;;;6240491;22;20341;-76
2022/02/01 02:54:22;;;;;;;5.85;3.20;;;;;;;;;;6239127;22;20024;-77
2022/02/01 02:56:50;;;;;;;6.43;3.00;;;;;;;;;;6239854;22;20062;-77
2022/02/01 02:59:17;;;;;;;6.03;3.45;;;;;;;;;;6240363;22;20481;-76
2022/02/01 03:01:47;;;;;;;6.20;3.40;;;;;;;;;;6240902;22;20059;-77
2022/02/01 03:04:14;;;;;;;5.15;2.97;;;;;;;;;;6240167;22;20070;-76
2022/02/01 03:06:41;;;;;;;8.75;3.67;;;;;;;;;;6239302;22;20066;-76
2022/02/01 03:09:07;;;;;;;5.97;3.03;;;;;;;;;;6240235;22;20745;-76
2022/02/01 03:11:35;;;;;;;5.22;3.05;;;;;;;;;;6239770;22;20024;-76
2022/02/01 03:14:05;;;;;;;7.40;2.90;;;;;;;;;;6240021;22;20016;-76
2022/02/01 03:16:49;;;;;;;8.70;3.88;;;;;;;;;;6240297;22;20020;-76
2022/02/01 03:22:00;;;;;;;5.82;2.92;;;;;;;;;;6239698;23;20413;-76
2022/02/01 03:24:26;;;;;;;6.13;3.60;;;;;;;;;;6239078;22;20086;-76
2022/02/01 03:26:54;;;;;;;6.50;3.38;;;;;;;;;;6239949;22;20527;-76
2022/02/01 03:29:21;;;;;;;6.45;3.00;;;;;;;;;;6239140;22;20149;-76
2022/02/01 03:31:48;;;;;;;8.98;3.40;;;;;;;;;;6240962;22;20066;-75
2022/02/01 03:34:14;;;;;;;6.90;3.03;;;;;;;;;;6239573;22;20023;-78
2022/02/01 03:36:41;;;;;;;7.03;2.95;;;;;;;;;;6240442;22;20024;-76
2022/02/01 03:39:07;;;;;;;6.45;2.60;;;;;;;;;;6239327;22;20081;-76
2022/02/01 03:41:34;;;;;;;5.60;3.25;;;;;;;;;;6239942;22;20020;-76
2022/02/01 03:44:04;;;;;;;9.70;3.67;;;;;;;;;;6240160;22;20020;-76
2022/02/01 03:46:31;;;;;;;6.82;3.92;;;;;;;;;;6239304;22;20105;-76
2022/02/01 03:48:57;;;;;;;7.38;3.28;;;;;;;;;;6240030;22;20028;-76
2022/02/01 03:51:24;;;;;;;7.22;3.35;;;;;;;;;;6239034;22;20020;-76
2022/02/01 03:53:51;;;;;;;5.80;2.95;;;;;;;;;;6239758;22;20027;-75
2022/02/01 03:56:17;;;;;;;6.05;3.38;;;;;;;;;;6240066;22;20055;-75
2022/02/01 03:58:44;;;;;;;5.93;2.83;;;;;;;;;;6239628;22;20055;-76
2022/02/01 04:01:12;;;;;;;6.30;3.40;;;;;;;;;;6239937;22;20027;-76
2022/02/01 04:03:38;;;;;;;5.35;2.83;;;;;;;;;;6240873;22;20032;-76
2022/02/01 04:06:05;;;;;;;6.75;3.00;;;;;;;;;;6237803;22;20024;-76
2022/02/01 04:08:31;;;;;;;6.35;3.45;;;;;;;;;;6237598;23;20020;-76
2022/02/01 04:10:58;;;;;;;6.55;3.05;;;;;;;;;;6239979;22;20020;-76
2022/02/01 04:13:24;;;;;;;7.75;3.60;;;;;;;;;;6238919;22;20020;-76
2022/02/01 04:15:51;;;;;;;8.13;4.07;;;;;;;;;;6239749;22;20101;-76
2022/02/01 04:18:19;;;;;;;7.43;3.80;;;;;;;;;;6239261;22;20074;-76
2022/02/01 04:20:45;;;;;;;8.90;3.60;;;;;;;;;;6239715;22;20437;-76
2022/02/01 04:23:12;;;;;;;4.93;3.42;;;;;;;;;;6238507;22;20024;-76
2022/02/01 04:25:38;;;;;;;6.35;3.47;;;;;;;;;;6239281;22;20059;-77
2022/02/01 04:28:05;;;;;;;6.43;3.95;;;;;;;;;;6238014;22;20077;-76
2022/02/01 04:30:32;;;;;;;9.00;3.97;;;;;;;;;;6237602;22;20052;-76
2022/02/01 04:32:58;;;;;;;7.22;3.78;;;;;;;;;;6238817;22;20058;-77
2022/02/01 04:35:30;;;;;;;5.63;3.25;;;;;;;;;;6240084;22;20024;-78
2022/02/01 05:31:49;;;;;;;4.05;2.00;;;;;;;;;;6270370;22;20016;-90
2022/02/01 05:34:16;;;;;;;3.95;1.55;;;;;;;;;;6274019;22;20022;-90
2022/02/01 05:36:43;;;;;;;4.05;1.95;;;;;;;;;;6274144;22;20019;-90
2022/02/01 05:39:17;;;;;;;3.58;1.63;;;;;;;;;;6273698;22;20093;-90
2022/02/01 05:41:52;;;;;;;3.00;1.50;;;;;;;;;;6273855;22;20034;-90
2022/02/01 05:44:19;;;;;;;4.57;1.60;;;;;;;;;;6273983;22;20102;-91
2022/02/01 05:47:16;;;;;;;3.00;1.45;;;;;;;;;;6274009;22;20476;-91
2022/02/01 05:49:44;;;;;;;4.07;1.90;;;;;;;;;;6271953;22;20070;-90
2022/02/01 05:52:20;;;;;;;3.40;2.25;;;;;;;;;;6274181;22;20450;-91
2022/02/01 05:54:48;;;;;;;5.97;2.03;;;;;;;;;;6273492;22;20118;-91
2022/02/01 05:57:34;;;;;;;5.35;1.95;;;;;;;;;;6272216;22;20053;-91
2022/02/01 06:00:17;;;;;;;6.93;1.70;;;;;;;;;;6274063;22;20759;-91
2022/02/01 06:02:46;;;;;;;4.15;1.98;;;;;;;;;;6272285;22;20028;-91
2022/02/01 06:05:16;;;;;;;6.57;2.17;;;;;;;;;;6273678;22;20020;-91
2022/02/01 06:07:53;;;;;;;9.68;3.22;;;;;;;;;;6272852;22;20028;-91
2022/02/01 06:10:19;;;;;;;6.00;2.85;;;;;;;;;;6272292;22;20028;-91
2022/02/01 06:12:48;;;;;;;10.45;2.80;;;;;;;;;;6273655;22;20015;-91
2022/02/01 06:15:24;;;;;;;7.40;3.08;;;;;;;;;;6273638;22;20015;-91
2022/02/01 06:17:53;;;;;;;;;;;;;;;;;;6274469;22;20706;-91
2022/02/01 06:20:27;;;;;;;8.00;3.53;;;;;;;;;;6272374;22;19923;-91
2022/02/01 06:22:54;;;;;;;13.80;3.67;;;;;;;;;;6274004;22;20342;-91
2022/02/01 06:25:41;;;;;;;17.50;4.00;;;;;;;;;;6272862;22;20454;-92
2022/02/01 06:29:00;;;;;;;14.07;3.90;;;;;;;;;;6274379;22;20094;-91
2022/02/01 06:32:05;;;;;;;14.45;2.83;;;;;;;;;;6275416;22;20099;-90
2022/02/01 06:34:41;;;;;;;18.58;3.08;;;;;;;;;;6272127;22;20075;-91
2022/02/01 06:37:08;;;;;;;13.97;2.97;;;;;;;;;;6275339;22;20113;-91
2022/02/01 06:39:34;;;;;;;15.90;2.90;;;;;;;;;;6275584;22;20031;-91
2022/02/01 06:42:03;;;;;;;9.80;2.45;;;;;;;;;;6274825;22;20022;-91
2022/02/01 06:44:32;;;;;;;18.27;3.30;;;;;;;;;;6248988;22;20103;-91
2022/02/01 06:46:59;;;;;;;12.77;2.38;;;;;;;;;;6275254;22;20016;-91
2022/02/01 06:49:26;;;;;;;12.88;3.90;;;;;;;;;;6275309;22;20023;-90
2022/02/01 06:51:54;;;;;;;13.45;2.92;;;;;;;;;;6275654;22;20047;-92
2022/02/01 06:54:20;;;;;;;13.30;3.50;;;;;;;;;;6275438;22;20019;-91
2022/02/01 06:56:47;;;;;;;11.95;3.03;;;;;;;;;;6274897;22;20023;-90
2022/02/01 06:59:14;;;;;;;11.43;2.22;;;;;;;;;;6275307;22;20020;-91
2022/02/01 07:01:41;;;;;;;19.10;3.40;;;;;;;;;;6275736;22;20020;-91
2022/02/01 07:04:08;;;;;;;11.60;3.63;;;;;;;;;;6275501;22;20015;-91
2022/02/01 07:06:35;;;;;;;7.07;2.50;;;;;;;;;;6274584;22;20019;-91
2022/02/01 07:09:06;;;;;;;15.77;3.08;;;;;;;;;;6275354;22;20526;-91
2022/02/01 07:11:37;;;;;;;11.70;4.22;;;;;;;;;;6275375;22;20050;-90
2022/02/01 07:14:04;;;;;;;10.50;2.83;;;;;;;;;;6275625;22;20020;-91
2022/02/01 07:16:30;;;;;;;12.85;2.50;;;;;;;;;;6274393;22;20016;-91
2022/02/01 07:18:57;;;;;;;15.57;3.40;;;;;;;;;;6274876;22;20077;-90
2022/02/01 07:21:26;;;;;;;15.40;2.95;;;;;;;;;;6275511;22;20016;-91
2022/02/01 07:23:53;;;;;;;16.23;3.05;;;;;;;;;;6275454;22;20024;-90
2022/02/01 07:26:22;;;;;;;15.65;3.67;;;;;;;;;;6274861;22;20645;-91
2022/02/01 07:28:49;;;;;;;18.13;3.53;;;;;;;;;;6275234;22;20027;-91
2022/02/01 07:31:16;;;;;;;10.85;2.92;;;;;;;;;;6273715;22;20470;-91
2022/02/01 07:33:43;;;;;;;17.55;3.75;;;;;;;;;;6272368;22;20463;-91
2022/02/01 07:36:16;;;;;;;18.60;4.30;;;;;;;;;;6276527;22;20458;-91
2022/02/01 07:38:45;;;;;;;13.23;4.13;;;;;;;;;;6275058;22;20022;-91
2022/02/01 07:41:13;;;;;;;13.98;4.95;;;;;;;;;;6276563;22;20039;-91
2022/02/01 07:43:41;;;;;;;14.27;3.78;;;;;;;;;;6276436;22;20493;-91
2022/02/01 07:46:16;;;;;;;9.82;3.00;;;;;;;;;;6276888;22;20393;-92
2022/02/01 07:48:45;;;;;;;18.52;3.70;;;;;;;;;;6275886;22;20015;-91
2022/02/01 07:51:12;;;;;;;18.13;3.35;;;;;;;;;;6275989;22;20016;-91
2022/02/01 07:53:39;;;;;;;14.75;2.95;;;;;;;;;;6275286;22;20020;-91
2022/02/01 07:56:08;;;;;;;12.48;3.13;;;;;;;;;;6275173;22;20097;-91
2022/02/01 07:58:44;;;;;;;10.40;3.40;;;;;;;;;;6274524;22;20015;-92
2022/02/01 08:01:13;;;;;;;19.58;3.88;;;;;;;;;;6275127;22;20439;-91
2022/02/01 08:03:39;;;;;;;8.23;2.72;;;;;;;;;;6274838;22;20558;-91
2022/02/01 08:06:06;;;;;;;14.48;2.53;;;;;;;;;;6275396;22;20078;-91
2022/02/01 08:08:33;;;;;;;10.43;3.38;;;;;;;;;;6275282;22;20024;-91
2022/02/01 08:11:08;;;;;;;18.35;4.30;;;;;;;;;;6274929;22;20097;-91
2022/02/01 08:16:40;;;;;;;18.00;3.13;;;;;;;;;;6274895;22;20419;-91
2022/02/01 08:19:22;;;;;;;16.75;3.58;;;;;;;;;;6274873;22;20039;-91
2022/02/01 08:22:08;;;;;;;10.32;3.22;;;;;;;;;;6275398;22;20094;-91
2022/02/01 08:24:34;;;;;;;9.50;2.72;;;;;;;;;;6274919;22;20160;-90
2022/02/01 08:27:02;;;;;;;11.98;2.40;;;;;;;;;;6275274;22;20016;-91
2022/02/01 08:29:29;;;;;;;14.77;2.60;;;;;;;;;;6274200;22;20015;-91
2022/02/01 08:31:59;;;;;;;9.80;2.85;;;;;;;;;;6275292;22;20098;-91
2022/02/01 08:34:26;;;;;;;11.23;2.72;;;;;;;;;;6274273;22;20078;-91
2022/02/01 08:36:54;;;;;;;10.50;2.40;;;;;;;;;;6274997;22;20472;-91
2022/02/01 08:39:21;;;;;;;11.52;2.50;;;;;;;;;;6274791;22;20043;-91
2022/02/01 08:41:48;;;;;;;10.27;3.42;;;;;;;;;;6275397;22;20023;-91
2022/02/01 08:44:17;;;;;;;13.98;2.17;;;;;;;;;;6275456;22;20020;-91
2022/02/01 08:46:45;;;;;;;11.82;3.17;;;;;;;;;;6275007;22;20019;-91
2022/02/01 08:49:13;;;;;;;7.10;2.20;;;;;;;;;;6275168;22;20015;-91
2022/02/01 08:51:43;;;;;;;10.63;2.00;;;;;;;;;;6275196;22;20065;-91
2022/02/01 08:54:17;;;;;;;13.73;2.25;;;;;;;;;;6275016;22;20015;-91
2022/02/01 08:59:30;;;;;;;12.23;2.65;;;;;;;;;;6275885;22;20106;-91
2022/02/01 09:01:57;;;;;;;8.38;2.90;;;;;;;;;;6273739;22;20081;-91
2022/02/01 09:04:26;;;;;;;11.05;2.80;;;;;;;;;;6274807;22;20023;-91
2022/02/01 09:06:52;;;;;;;11.15;2.65;;;;;;;;;;6275867;22;20019;-91
2022/02/01 09:09:23;;;;;;;14.68;3.85;;;;;;;;;;6275096;22;20020;-91
2022/02/01 09:11:50;;;;;;;10.13;2.38;;;;;;;;;;6273876;22;20070;-91
2022/02/01 09:14:17;;;;;;;8.55;2.20;;;;;;;;;;6275538;22;20020;-92
2022/02/01 09:16:44;;;;;;;10.88;2.53;;;;;;;;;;6274221;22;20462;-91
2022/02/01 09:19:11;;;;;;;14.07;2.42;;;;;;;;;;6275237;22;20581;-91
2022/02/01 09:21:42;;;;;;;13.25;2.17;;;;;;;;;;6275021;22;20020;-91
2022/02/01 09:24:10;;;;;;;15.13;2.53;;;;;;;;;;6274696;22;20050;-91
2022/02/01 09:26:38;;;;;;;11.63;2.65;;;;;;;;;;6274211;22;20081;-91
2022/02/01 09:29:06;;;;;;;14.13;2.30;;;;;;;;;;6274287;22;20094;-91
2022/02/01 09:31:33;;;;;;;8.13;2.30;;;;;;;;;;6275120;22;20011;-91
2022/02/01 09:34:00;;;;;;;11.75;1.90;;;;;;;;;;6274350;22;20039;-91
2022/02/01 09:36:28;;;;;;;9.10;2.35;;;;;;;;;;6275118;22;20023;-91
2022/02/01 09:39:00;;;;;;;11.25;2.25;;;;;;;;;;6273936;22;20034;-92
2022/02/01 09:41:32;;;;;;;12.45;2.45;;;;;;;;;;6275244;22;20023;-91
2022/02/01 09:43:59;;;;;;;7.10;1.77;;;;;;;;;;6274862;22;20016;-91
2022/02/01 09:46:27;;;;;;;11.05;2.15;;;;;;;;;;6275225;22;20121;-91
2022/02/01 09:48:56;;;;;;;8.93;2.60;;;;;;;;;;6275401;22;20023;-91
2022/02/01 09:51:23;;;;;;;13.68;2.75;;;;;;;;;;6272949;22;20019;-91
2022/02/01 09:53:50;;;;;;;9.02;1.92;;;;;;;;;;6274395;22;20016;-91
2022/02/01 09:56:45;;;;;;;11.65;2.33;;;;;;;;;;6274236;22;20413;-91
2022/02/01 09:59:16;;;;;;;10.10;2.67;;;;;;;;;;6275091;22;20069;-91
2022/02/01 10:01:54;;;;;;;14.52;3.50;;;;;;;;;;6275027;22;20389;-92
2022/02/01 10:04:27;;;;;;;9.00;2.45;;;;;;;;;;6274533;22;20019;-92
2022/02/01 10:09:52;;;;;;;12.90;1.92;;;;;;;;;;6276575;22;20058;-92
2022/02/01 10:12:27;;;;;;;8.88;1.58;;;;;;;;;;6276492;22;20851;-91
2022/02/01 10:15:04;;;;;;;7.38;2.20;;;;;;;;;;6276381;22;20016;-92
2022/02/01 10:17:40;;;;;;;8.18;2.50;;;;;;;;;;6276844;22;20020;-92
2022/02/01 10:20:12;;;;;;;10.30;2.08;;;;;;;;;;6275919;22;20366;-92
2022/02/01 10:22:40;;;;;;;7.90;1.88;;;;;;;;;;6275863;22;20016;-91
2022/02/01 10:25:23;;;;;;;9.20;2.40;;;;;;;;;;6276192;22;20677;-92
2022/02/01 10:27:56;;;;;;;10.70;2.63;;;;;;;;;;6276487;22;20031;-92
2022/02/01 10:30:29;;;;;;;7.53;2.13;;;;;;;;;;6276867;22;20016;-91
2022/02/01 10:33:17;;;;;;;8.60;2.00;;;;;;;;;;6276069;22;20054;-92
2022/02/01 10:35:59;;;;;;;9.00;2.30;;;;;;;;;;6275738;22;20020;-92
2022/02/01 10:38:50;;;;;;;9.57;2.47;;;;;;;;;;6275345;22;20023;-92
2022/02/01 10:41:17;;;;;;;12.43;2.75;;;;;;;;;;6275938;22;20090;-90
2022/02/01 10:43:52;;;;;;;5.88;2.25;;;;;;;;;;6276099;22;20019;-90
2022/02/01 10:46:23;;;;;;;5.18;1.98;;;;;;;;;;6275939;22;20024;-91
2022/02/01 10:48:52;;;;;;;7.60;2.30;;;;;;;;;;6276695;22;20050;-91
2022/02/01 10:51:21;;;;;;;5.10;2.38;;;;;;;;;;6276683;22;20028;-91
2022/02/01 10:53:48;;;;;;;4.32;2.15;;;;;;;;;;6275520;22;20023;-91
2022/02/01 10:56:18;;;;;;;8.98;2.38;;;;;;;;;;6275773;22;20024;-92
2022/02/01 10:58:50;;;;;;;7.47;2.53;;;;;;;;;;6275527;22;20520;-90
2022/02/01 11:01:18;;;;;;;14.18;2.28;;;;;;;;;;6277600;22;20077;-91
2022/02/01 11:03:50;;;;;;;5.13;2.40;;;;;;;;;;6277035;22;20081;-92
2022/02/01 11:06:28;;;;;;;7.63;2.88;;;;;;;;;;6276853;22;20020;-92
2022/02/01 11:08:56;;;;;;;9.68;2.83;;;;;;;;;;6278012;22;20020;-91
2022/02/01 11:11:22;;;;;;;6.22;1.95;;;;;;;;;;6277701;22;20023;-91
2022/02/01 11:14:29;;;;;;;10.77;2.30;;;;;;;;;;6277239;22;20024;-92
2022/02/01 11:17:07;;;;;;;3.35;1.50;;;;;;;;;;6276205;22;20020;-92
2022/02/01 11:19:45;;;;;;;6.97;2.30;;;;;;;;;;6276704;22;20016;-91
2022/02/01 11:22:20;;;;;;;10.32;2.50;;;;;;;;;;6276854;22;20024;-92
2022/02/01 11:24:52;;;;;;;4.38;1.58;;;;;;;;;;6276390;22;20081;-92
2022/02/01 11:30:20;;;;;;;9.57;2.28;;;;;;;;;;6275403;22;20028;-91
2022/02/01 11:32:59;;;;;;;5.68;2.28;;;;;;;;;;6276320;22;20023;-90
2022/02/01 11:35:27;;;;;;;7.28;2.22;;;;;;;;;;6276210;22;20024;-90
2022/02/01 11:37:55;;;;;;;8.00;2.55;;;;;;;;;;6277033;22;20092;-92
2022/02/01 11:40:24;;;;;;;9.15;1.98;;;;;;;;;;6276587;22;20078;-90
2022/02/01 11:42:59;;;;;;;7.32;1.77;;;;;;;;;;6276856;22;20023;-91
2022/02/01 11:45:32;;;;;;;6.60;1.93;;;;;;;;;;6276792;22;20070;-92
2022/02/01 11:48:01;;;;;;;5.85;1.52;;;;;;;;;;6276339;22;20019;-90
2022/02/01 11:50:28;;;;;;;8.15;2.28;;;;;;;;;;6277015;22;20525;-91
2022/02/01 11:52:57;;;;;;;7.03;2.28;;;;;;;;;;6276481;22;20015;-91
2022/02/01 11:55:29;;;;;;;6.72;1.60;;;;;;;;;;6276181;22;20069;-92
2022/02/01 11:58:01;;;;;;;8.65;2.50;;;;;;;;;;6276948;22;20023;-90
2022/02/01 12:00:28;;;;;;;4.85;1.90;;;;;;;;;;6276386;22;20028;-92
2022/02/01 12:02:57;;;;;;;3.80;1.45;;;;;;;;;;6275133;22;20028;-91
2022/02/01 12:05:29;;;;;;;5.72;1.40;;;;;;;;;;6275627;22;20645;-91
2022/02/01 12:08:04;;;;;;;4.63;2.13;;;;;;;;;;6275127;22;20023;-91
2022/02/01 12:10:32;;;;;;;9.48;2.05;;;;;;;;;;6274736;22;20091;-91
2022/02/01 12:12:59;;;;;;;9.02;1.85;;;;;;;;;;6275368;22;20069;-90
2022/02/01 12:15:28;;;;;;;7.75;1.40;;;;;;;;;;6274870;22;20548;-91
2022/02/01 12:18:03;;;;;;;4.00;1.25;;;;;;;;;;6276358;22;20019;-91
2022/02/01 12:20:32;;;;;;;9.73;2.67;;;;;;;;;;6277993;22;20089;-90
2022/02/01 12:23:18;;;;;;;5.38;2.22;;;;;;;;;;6276418;22;20028;-91
2022/02/01 12:25:45;;;;;;;7.05;1.80;;;;;;;;;;6275489;22;20020;-90
2022/02/01 12:28:16;;;;;;;6.82;1.38;;;;;;;;;;6275867;22;20446;-91
2022/02/01 12:30:43;;;;;;;6.63;1.90;;;;;;;;;;6275585;22;20046;-90
2022/02/01 12:33:18;;;;;;;4.90;1.52;;;;;;;;;;6274480;22;20520;-91
2022/02/01 12:35:47;;;;;;;9.02;1.52;;;;;;;;;;6275859;22;20069;-91
2022/02/01 12:38:20;;;;;;;5.22;2.38;;;;;;;;;;6274522;22;20349;-90
2022/02/01 12:40:50;;;;;;;4.45;1.55;;;;;;;;;;6274383;22;20354;-90
2022/02/01 12:43:25;;;;;;;4.40;1.77;;;;;;;;;;6276360;22;20049;-90
2022/02/01 12:48:47;;;;;;;5.32;1.55;;;;;;;;;;6275497;22;20020;-90
2022/02/01 12:51:16;;;;;;;3.50;1.73;;;;;;;;;;6275068;22;20019;-90
2022/02/01 12:53:47;;;;;;;4.32;1.65;;;;;;;;;;6274472;22;20023;-91
2022/02/01 12:56:16;;;;;;;7.75;1.83;;;;;;;;;;6273785;22;20023;-89
2022/02/01 12:58:43;;;;;;;5.45;1.50;;;;;;;;;;6274807;22;20020;-90
2022/02/01 13:01:09;;;;;;;8.40;1.90;;;;;;;;;;6275383;22;20050;-90
2022/02/01 13:03:43;;;;;;;8.55;1.90;;;;;;;;;;6275748;22;20023;-90
2022/02/01 13:06:12;;;;;;;5.82;2.00;;;;;;;;;;6273626;22;20027;-89
2022/02/01 13:14:44;;;;;;;5.43;1.92;;;;;;;;;;6275247;22;20026;-90
2022/02/01 13:17:34;;;;;;;5.45;1.48;;;;;;;;;;6275356;22;20085;-90
2022/02/01 13:20:06;;;;;;;6.22;1.45;;;;;;;;;;6273964;22;20070;-90
2022/02/01 13:22:34;;;;;;;5.97;1.50;;;;;;;;;;6274403;22;20446;-89
2022/02/01 13:25:12;;;;;;;13.50;2.05;;;;;;;;;;6275104;22;20023;-90
2022/02/01 13:27:38;;;;;;;3.92;1.70;;;;;;;;;;6274407;22;20027;-89
2022/02/01 13:30:08;;;;;;;3.72;1.63;;;;;;;;;;6275364;22;20020;-91
2022/02/01 13:32:36;;;;;;;7.88;2.08;;;;;;;;;;6277506;22;20016;-90
2022/02/01 13:35:05;;;;;;;6.53;2.10;;;;;;;;;;6274010;22;20062;-91
2022/02/01 13:37:33;;;;;;;5.40;1.67;;;;;;;;;;6274619;22;20019;-91
2022/02/01 13:40:00;;;;;;;4.95;1.45;;;;;;;;;;6276339;22;20015;-92
2022/02/01 13:42:35;;;;;;;8.57;2.20;;;;;;;;;;6276785;22;20074;-91
2022/02/01 13:45:14;;;;;;;8.52;2.15;;;;;;;;;;6278249;22;20094;-91
2022/02/01 13:47:43;;;;;;;7.82;2.00;;;;;;;;;;6279294;22;20073;-92
2022/02/01 13:50:12;;;;;;;7.93;2.33;;;;;;;;;;6276775;22;20350;-90
2022/02/01 13:52:39;;;;;;;3.78;1.88;;;;;;;;;;6276720;22;20069;-89
2022/02/01 13:55:18;;;;;;;8.90;2.17;;;;;;;;;;6276311;22;20015;-89
2022/02/01 13:57:47;;;;;;;3.67;1.30;;;;;;;;;;6277906;22;20089;-90
2022/02/01 14:00:14;;;;;;;8.30;1.85;;;;;;;;;;6277674;22;20023;-91
2022/02/01 14:02:49;;;;;;;7.43;1.77;;;;;;;;;;6275945;22;20501;-93
2022/02/01 14:05:29;;;;;;;4.95;1.50;;;;;;;;;;6276439;22;20020;-90
2022/02/01 14:08:21;;;;;;;4.82;1.70;;;;;;;;;;6277284;22;20023;-91
2022/02/01 14:11:05;;;;;;;3.47;1.58;;;;;;;;;;6276962;22;20047;-91
2022/02/01 14:13:59;;;;;;;3.85;1.70;;;;;;;;;;6277033;22;20446;-89
2022/02/01 14:27:42;;;;;;;7.30;1.38;;;;;;;;;;6276783;22;20095;-90
2022/02/01 14:35:39;;;;;;;5.82;1.88;;;;;;;;;;6276961;22;20038;-91
2022/02/01 14:38:11;;;;;;;4.97;1.17;;;;;;;;;;6279894;22;20023;-90
2022/02/01 14:43:38;;;;;;;10.27;2.85;;;;;;;;;;6276788;22;20530;-90
2022/02/01 14:46:09;;;;;;;7.93;3.08;;;;;;;;;;6277096;22;20026;-90
2022/02/01 14:48:37;;;;;;;8.35;2.53;;;;;;;;;;6276927;22;20646;-90
2022/02/01 14:51:04;;;;;;;4.43;1.17;;;;;;;;;;6275995;22;20016;-90
2022/02/01 14:53:33;;;;;;;5.38;1.88;;;;;;;;;;6277116;22;20082;-89
2022/02/01 14:56:09;;;;;;;8.15;2.47;;;;;;;;;;6276450;22;20450;-89
2022/02/01 15:04:20;;;;;;;6.22;1.98;;;;;;;;;;6276691;22;20022;-89
2022/02/01 15:07:06;;;;;;;7.00;1.75;;;;;;;;;;6275083;22;20360;-89
2022/02/01 15:15:08;;;;;;;4.57;1.80;;;;;;;;;;6277083;22;20073;-90
2022/02/01 15:17:37;;;;;;;4.15;1.67;;;;;;;;;;6276627;22;20069;-91
2022/02/01 15:20:05;;;;;;;6.80;2.50;;;;;;;;;;6277628;22;20020;-90
2022/02/01 15:22:35;;;;;;;4.93;1.77;;;;;;;;;;6276768;22;20412;-90
2022/02/01 15:25:01;;;;;;;4.03;1.88;;;;;;;;;;6274632;22;20493;-90
2022/02/01 15:27:31;;;;;;;5.93;1.80;;;;;;;;;;6276390;22;20019;-91
2022/02/01 15:29:58;;;;;;;5.45;2.00;;;;;;;;;;6276299;22;20020;-90
2022/02/01 15:32:28;;;;;;;5.53;1.52;;;;;;;;;;6276136;22;20022;-91
2022/02/01 15:34:58;;;;;;;4.85;1.60;;;;;;;;;;6275405;22;20051;-90
2022/02/01 15:37:31;;;;;;;5.93;2.20;;;;;;;;;;6277801;22;20020;-90
2022/02/01 15:59:18;;;;;;;3.80;1.95;;;;;;;;;;6276257;22;20026;-91
2022/02/01 16:01:52;;;;;;;4.88;1.70;;;;;;;;;;6275516;22;20023;-90
2022/02/01 16:04:21;;;;;;;6.68;2.17;;;;;;;;;;6275504;22;20023;-91
2022/02/01 16:06:55;;;;;;;4.65;1.80;;;;;;;;;;6275957;22;20081;-90
2022/02/01 16:09:44;;;;;;;6.30;1.67;;;;;;;;;;6275470;22;20016;-90
2022/02/01 16:12:51;;;;;;;3.95;2.10;;;;;;;;;;6276523;22;20015;-90
2022/02/01 16:15:30;;;;;;;;;;;;;;;;;;6268748;22;20016;-90
2022/02/01 16:18:19;;;;;;;5.07;1.95;;;;;;;;;;6276919;22;19922;-90
2022/02/01 16:21:11;;;;;;;3.33;1.83;;;;;;;;;;6275114;22;20095;-91
2022/02/01 16:23:48;;;;;;;8.10;3.50;;;;;;;;;;6275307;22;20015;-90
2022/02/01 16:26:14;;;;;;;8.43;2.10;;;;;;;;;;6273852;22;20121;-89
2022/02/01 16:28:41;;;;;;;6.43;2.47;;;;;;;;;;6275393;22;20050;-90
2022/02/01 16:31:07;;;;;;;4.93;2.08;;;;;;;;;;6275738;22;20024;-90
2022/02/01 16:33:37;;;;;;;3.70;1.15;;;;;;;;;;6275662;22;20027;-90
2022/02/01 16:36:11;;;;;;;5.38;1.33;;;;;;;;;;6272010;22;20016;-90
2022/02/01 16:38:41;;;;;;;4.57;1.30;;;;;;;;;;6274173;22;20397;-90
2022/02/01 16:44:03;;;;;;;4.22;1.52;;;;;;;;;;6274872;22;20028;-90
2022/02/01 16:46:46;;;;;;;3.28;1.33;;;;;;;;;;6275193;22;20030;-90
2022/02/01 16:49:17;;;;;;;2.47;1.33;;;;;;;;;;6221100;22;20092;-90
2022/02/01 16:51:47;;;;;;;2.47;1.13;;;;;;;;;;6274311;22;20016;-91
2022/02/01 16:54:17;;;;;;;5.53;1.10;;;;;;;;;;6274347;22;20027;-90
2022/02/01 16:56:57;;;;;;;4.50;1.60;;;;;;;;;;6274437;22;20409;-90
2022/02/01 16:59:25;;;;;;;3.88;1.10;;;;;;;;;;6275094;22;20114;-90
2022/02/01 17:01:53;;;;;;;2.83;1.30;;;;;;;;;;6274807;22;20331;-89
2022/02/01 17:04:33;;;;;;;5.70;1.40;;;;;;;;;;6275154;22;20571;-91
2022/02/01 17:07:01;;;;;;;7.50;2.03;;;;;;;;;;6275787;22;20520;-90
2022/02/01 17:09:28;;;;;;;6.00;1.30;;;;;;;;;;6275940;22;20012;-90
2022/02/01 17:12:11;;;;;;;5.50;1.75;;;;;;;;;;6276844;22;20099;-90
2022/02/01 17:17:36;;;;;;;6.50;1.80;;;;;;;;;;6275307;22;20012;-89
2022/02/01 17:25:31;;;;;;;4.95;1.73;;;;;;;;;;6260865;22;20478;-79
2022/02/01 17:27:59;;;;;;;5.80;2.13;;;;;;;;;;6275485;22;20020;-77
2022/02/01 17:30:26;;;;;;;9.23;2.35;;;;;;;;;;6275624;22;20016;-78
2022/02/01 17:32:52;;;;;;;5.00;1.75;;;;;;;;;;6275660;22;20012;-79
2022/02/01 17:35:19;;;;;;;3.15;1.48;;;;;;;;;;6275059;22;20027;-79
2022/02/01 17:37:46;;;;;;;4.10;1.77;;;;;;;;;;6275849;22;20015;-78
2022/02/01 17:40:13;;;;;;;4.55;1.58;;;;;;;;;;6274413;22;20440;-80
2022/02/01 17:42:42;;;;;;;4.10;2.28;;;;;;;;;;6274610;22;20475;-78
2022/02/01 17:45:11;;;;;;;6.38;1.80;;;;;;;;;;6275783;22;20095;-80
2022/02/01 17:47:38;;;;;;;2.40;1.60;;;;;;;;;;6278285;22;20016;-81
2022/02/01 17:50:06;;;;;;;9.20;1.95;;;;;;;;;;6279802;22;20016;-80
2022/02/01 17:52:42;;;;;;;2.67;1.70;;;;;;;;;;6279352;22;20016;-82
2022/02/01 17:55:09;;;;;;;8.95;2.40;;;;;;;;;;6280437;22;20363;-82
2022/02/01 17:57:37;;;;;;;4.82;2.10;;;;;;;;;;6280804;22;20016;-83
2022/02/01 18:00:06;;;;;;;6.32;1.98;;;;;;;;;;6252839;22;20063;-81
2022/02/01 18:02:34;;;;;;;8.85;2.15;;;;;;;;;;6280197;22;20024;-80
2022/02/01 18:05:01;;;;;;;5.93;2.10;;;;;;;;;;6279541;22;20027;-81